Buoy 46787

sailwx.info

Track history (hours):
 
Tides and Currents Weather Stations Pressure Air Temp Water Temp Dewpoint Dewpoint Depression Visibility Wind Speed Wind Dir Waves Ship Positions

Drifting buoy 46787

Last reported at 2018-Feb-21 00:00 UTC. Time now 2018-Feb-21 01:44 UTC.
Position N 47°21' W 140°13'.

Water temperature 7.2 ° C

Date/timePositionNaut miles runAvg speedWind from/ knotsBaromVisibWave heightAir tempDewpointWater temp
2018-Feb-21 00:00N 47°21' W 140°13'0 0.0 7.2
2018-Feb-20 23:00N 47°21' W 140°13'0 0.0 7.2
2018-Feb-20 22:00N 47°21' W 140°13'1 1.2 7.1
2018-Feb-20 21:00N 47°21' W 140°11'1 0.4 7.1
2018-Feb-20 19:00N 47°22' W 140°11'1 0.6 7.1
2018-Feb-20 17:00N 47°23' W 140°12'0 0.2 7.1
2018-Feb-20 15:00N 47°23' W 140°11'1 0.7 7.1
2018-Feb-20 14:00N 47°23' W 140°12'3 2.5 7.1
2018-Feb-20 13:00N 47°26' W 140°13'3 2.5 7.1
2018-Feb-20 12:00N 47°23' W 140°12'3 0.6 7.1
2018-Feb-20 07:00N 47°26' W 140°14'1 0.7 7.1
2018-Feb-20 06:00N 47°25' W 140°15'1 0.6 7.1
2018-Feb-20 05:00N 47°26' W 140°15'0 0.0 7.1
2018-Feb-20 04:00N 47°26' W 140°15'0 0.0 7.1
2018-Feb-20 03:00N 47°26' W 140°15'2 2.0 7.1
2018-Feb-20 02:00N 47°25' W 140°13'2 2.0 7.1
2018-Feb-20 01:00N 47°26' W 140°15'0 0.4 7.1
2018-Feb-20 00:00N 47°26' W 140°16'1 0.7 7.1
2018-Feb-19 23:00N 47°26' W 140°15'1 0.7 7.1
2018-Feb-19 22:00N 47°26' W 140°16'1 0.2 -0.0
2018-Feb-19 19:00N 47°26' W 140°16'1 1.4 7.1
2018-Feb-19 18:00N 47°27' W 140°18'0 0.0 7.1
2018-Feb-19 17:00N 47°27' W 140°18'0 0.0 7.1
2018-Feb-19 16:00N 47°27' W 140°18'0 0.0 7.1
2018-Feb-19 15:00N 47°27' W 140°18'0 0.0 7.1
2018-Feb-19 14:00N 47°27' W 140°18'1 1.3 7.1
2018-Feb-19 13:00N 47°26' W 140°19'0 0.0 7.1
2018-Feb-19 12:00N 47°26' W 140°19'0 0.0 7.1
2018-Feb-19 07:00N 47°26' W 140°19'1 0.6 7.1
2018-Feb-19 06:00N 47°26' W 140°19'1 0.8 7.1
2018-Feb-19 05:00N 47°26' W 140°17'2 1.8 7.2
2018-Feb-19 04:00N 47°28' W 140°17'0 0.0 7.2
2018-Feb-19 03:00N 47°28' W 140°17'1 1.4 7.2
2018-Feb-19 02:00N 47°29' W 140°19'1 0.8 7.2
2018-Feb-19 01:00N 47°29' W 140°20'0 0.0 7.2
2018-Feb-19 00:00N 47°29' W 140°20'0 0.0 7.2
2018-Feb-18 23:00N 47°29' W 140°20'1 0.6 7.2
2018-Feb-18 22:00N 47°30' W 140°20'1 0.3 7.2
2018-Feb-18 20:00N 47°29' W 140°20'2 1.2 7.2
2018-Feb-18 18:00N 47°29' W 140°16'0 0.0 7.1
2018-Feb-18 16:00N 47°29' W 140°16'1 0.7 7.1
2018-Feb-18 15:00N 47°30' W 140°16'1 0.7 7.2
2018-Feb-18 14:00N 47°31' W 140°15'2 2.2 7.1
2018-Feb-18 13:00N 47°32' W 140°13'1 1.4 7.1
2018-Feb-18 12:00N 47°31' W 140°14'3 2.5 7.1
2018-Feb-18 11:00N 47°34' W 140°16'0 0.1 7.1
2018-Feb-18 07:00N 47°34' W 140°15'0 0.0 7.1
2018-Feb-18 06:00N 47°34' W 140°15'0 0.4 7.1
2018-Feb-18 05:00N 47°34' W 140°16'0 0.4 7.1
2018-Feb-18 04:00N 47°34' W 140°15'0 0.0 7.1
2018-Feb-18 03:00N 47°34' W 140°15'1 1.2 7.1
2018-Feb-18 02:00N 47°34' W 140°13'0 0.4 7.1
2018-Feb-18 01:00N 47°34' W 140°13'1 1.0 7.2
2018-Feb-18 00:00N 47°34' W 140°11'0 0.0 7.2
2018-Feb-17 23:00N 47°34' W 140°11'3 2.7 7.2
2018-Feb-17 22:00N 47°37' W 140°10'0 0.0 7.2
2018-Feb-17 20:00N 47°37' W 140°10'1 1.3 7.1
2018-Feb-17 19:00N 47°38' W 140°10'3 2.7 7.1
2018-Feb-17 18:00N 47°40' W 140°12'1 0.2 7.1
2018-Feb-17 15:00N 47°41' W 140°13'0 0.0 7.1
2018-Feb-17 14:00N 47°41' W 140°13'0 0.0 7.1
2018-Feb-17 13:00N 47°41' W 140°13'2 2.0 7.1
2018-Feb-17 12:00N 47°43' W 140°14'3 3.1 7.1
2018-Feb-17 11:00N 47°40' W 140°13'4 0.9 7.1
2018-Feb-17 07:00N 47°43' W 140°14'1 1.4 7.1
2018-Feb-17 06:00N 47°44' W 140°16'1 1.4 7.1
2018-Feb-17 05:00N 47°45' W 140°14'0 0.0 7.1
2018-Feb-17 04:00N 47°45' W 140°14'1 1.4 7.1
2018-Feb-17 03:00N 47°46' W 140°16'0 0.0 7.1
2018-Feb-17 02:00N 47°46' W 140°16'3 2.7 7.1
2018-Feb-17 01:00N 47°47' W 140°20'0 0.0 7.1
2018-Feb-17 00:00N 47°47' W 140°20'0 0.0 7.1
2018-Feb-16 23:00N 47°47' W 140°20'3 0.9 7.1
2018-Feb-16 20:00N 47°46' W 140°23'1 1.0 7.1
2018-Feb-16 19:00N 47°45' W 140°22'1 0.4 7.1
2018-Feb-16 17:00N 47°44' W 140°23'1 0.5 7.1
2018-Feb-16 15:00N 47°45' W 140°22'1 0.7 7.1
2018-Feb-16 14:00N 47°46' W 140°21'2 2.0 7.1
2018-Feb-16 13:00N 47°47' W 140°22'5 4.8 7.1
2018-Feb-16 12:00N 47°49' W 140°29'4 4.2 7.1
2018-Feb-16 11:00N 47°48' W 140°23'4 1.1 7.2
2018-Feb-16 07:00N 47°50' W 140°29'3 2.7 7.4
2018-Feb-16 06:00N 47°49' W 140°32'1 0.6 7.4
2018-Feb-16 05:00N 47°48' W 140°32'1 1.3 7.4
2018-Feb-16 04:00N 47°47' W 140°32'0 0.0 7.4
2018-Feb-16 03:00N 47°47' W 140°32'1 1.0 7.4
2018-Feb-16 02:00N 47°46' W 140°31'1 0.7 7.4
2018-Feb-16 01:00N 47°47' W 140°30'0 0.0 7.4
2018-Feb-15 23:00N 47°47' W 140°30'1 1.2 7.3
2018-Feb-15 22:00N 47°48' W 140°30'1 1.3 7.3
2018-Feb-15 21:00N 47°49' W 140°32'0 0.0 7.3
2018-Feb-15 20:00N 47°49' W 140°32'1 1.2 7.3
2018-Feb-15 19:00N 47°49' W 140°34'1 1.2 7.3
2018-Feb-15 18:00N 47°49' W 140°35'2 2.0 7.3
2018-Feb-15 17:00N 47°47' W 140°38'0 0.0 7.3
2018-Feb-15 16:00N 47°47' W 140°38'1 1.4 7.3
2018-Feb-15 15:00N 47°47' W 140°40'1 0.6 7.3
2018-Feb-15 14:00N 47°46' W 140°40'1 0.6 7.3
2018-Feb-15 13:00N 47°46' W 140°40'1 0.6 7.3
2018-Feb-15 12:00N 47°45' W 140°40'0 0.0 7.3
2018-Feb-15 11:00N 47°45' W 140°40'0 0.0 7.3
2018-Feb-15 07:00N 47°45' W 140°40'1 0.6 7.3
2018-Feb-15 06:00N 47°46' W 140°40'1 0.6 7.3
2018-Feb-15 05:00N 47°46' W 140°40'1 1.4 7.3
2018-Feb-15 04:00N 47°47' W 140°41'0 0.0 7.3
2018-Feb-15 03:00N 47°47' W 140°41'1 1.3 7.3
2018-Feb-15 02:00N 47°48' W 140°43'2 1.7 7.3
2018-Feb-15 01:00N 47°49' W 140°45'0 0.0 7.3
2018-Feb-15 00:00N 47°49' W 140°45'1 0.8 7.4
2018-Feb-14 23:00N 47°49' W 140°46'1 1.3 7.3
2018-Feb-14 22:00N 47°48' W 140°48'1 0.7 7.3
2018-Feb-14 21:00N 47°47' W 140°49'0 0.4 7.3
2018-Feb-14 20:00N 47°47' W 140°48'1 1.0 7.3
2018-Feb-14 19:00N 47°47' W 140°47'1 1.4 7.3
2018-Feb-14 18:00N 47°46' W 140°45'0 0.0 7.3
2018-Feb-14 17:00N 47°46' W 140°45'3 1.3 7.2
2018-Feb-14 15:00N 47°49' W 140°44'1 0.7 7.2
2018-Feb-14 14:00N 47°49' W 140°43'1 1.4 7.2
2018-Feb-14 13:00N 47°50' W 140°44'5 5.3 7.2
2018-Feb-14 12:00N 47°53' W 140°51'0 0.0 7.2
2018-Feb-14 07:00N 47°53' W 140°51'0 0.4 7.2
2018-Feb-14 06:00N 47°53' W 140°52'1 0.6 7.2
2018-Feb-14 05:00N 47°53' W 140°52'1 0.7 7.2
2018-Feb-14 04:00N 47°52' W 140°51'1 0.7 7.2
2018-Feb-14 03:00N 47°53' W 140°50'0 0.4 7.2
2018-Feb-14 02:00N 47°53' W 140°50'0 0.0 7.2
2018-Feb-14 01:00N 47°53' W 140°50'1 0.6 7.2
2018-Feb-14 00:00N 47°53' W 140°50'1 1.3 7.3
2018-Feb-13 23:00N 47°55' W 140°49'2 2.4 7.3
2018-Feb-13 22:00N 47°57' W 140°49'0 0.0 7.3
2018-Feb-13 21:00N 47°57' W 140°49'0 0.4 7.3
2018-Feb-13 20:00N 47°57' W 140°49'3 1.6 7.2
2018-Feb-13 18:00N 47°59' W 140°52'3 0.9 7.2
2018-Feb-13 15:00N 47°59' W 140°56'1 0.7 7.2
2018-Feb-13 14:00N 47°59' W 140°57'1 1.0 7.2
2018-Feb-13 13:00N 47°58' W 140°58'2 2.0 7.3
2018-Feb-13 12:00N 47°56' W 140°59'0 0.0 7.3
2018-Feb-13 08:00N 47°56' W 140°59'0 0.4 7.3
2018-Feb-13 07:00N 47°56' W 140°59'0 0.4 7.3
2018-Feb-13 06:00N 47°56' W 140°59'0 0.0 7.3
2018-Feb-13 05:00N 47°56' W 140°59'0 0.0 7.3
2018-Feb-13 04:00N 47°56' W 140°59'1 1.2 7.3
2018-Feb-13 03:00N 47°56' W 141°01'2 2.4 7.3
2018-Feb-13 02:00N 47°56' W 141°05'0 0.0 7.3
2018-Feb-13 01:00N 47°56' W 141°05'1 1.3 7.3
2018-Feb-13 00:00N 47°56' W 141°07'0 0.0 7.3
2018-Feb-12 23:00N 47°56' W 141°07'2 2.0 7.3
2018-Feb-12 22:00N 47°54' W 141°08'0 0.0 7.3
2018-Feb-12 21:00N 47°54' W 141°08'0 0.0 7.3
2018-Feb-12 20:00N 47°54' W 141°08'1 1.2 7.3
2018-Feb-12 19:00N 47°53' W 141°08'1 0.8 7.3
2018-Feb-12 18:00N 47°53' W 141°07'0 0.0 7.3
2018-Feb-12 17:00N 47°53' W 141°07'1 1.2 7.3
2018-Feb-12 16:00N 47°53' W 141°05'0 0.0 7.3
2018-Feb-12 15:00N 47°53' W 141°05'1 1.0 7.3
2018-Feb-12 14:00N 47°53' W 141°06'4 4.1 7.3
2018-Feb-12 13:00N 47°53' W 141°12'0 0.0 7.3
2018-Feb-12 12:00N 47°53' W 141°12'0 0.0 7.3
2018-Feb-12 07:00N 47°53' W 141°12'1 1.0 7.3
2018-Feb-12 06:00N 47°52' W 141°13'1 0.7 7.3
2018-Feb-12 05:00N 47°52' W 141°14'1 1.3 7.3
2018-Feb-12 04:00N 47°50' W 141°13'0 0.0 7.3
2018-Feb-12 03:00N 47°50' W 141°13'1 1.3 7.3
2018-Feb-12 02:00N 47°50' W 141°11'0 0.0 7.3
2018-Feb-12 00:00N 47°50' W 141°11'1 1.3 7.3
2018-Feb-11 23:00N 47°51' W 141°11'0 0.0 7.3
2018-Feb-11 22:00N 47°51' W 141°11'0 0.0 7.3
2018-Feb-11 21:00N 47°51' W 141°11'1 1.2 7.3
2018-Feb-11 20:00N 47°52' W 141°11'1 0.7 7.3
2018-Feb-11 19:00N 47°52' W 141°11'3 0.9 7.2
2018-Feb-11 15:00N 47°53' W 141°16'1 0.8 7.3
2018-Feb-11 14:00N 47°53' W 141°17'2 1.8 7.3
2018-Feb-11 13:00N 47°51' W 141°17'0 0.0 7.3
2018-Feb-11 12:00N 47°51' W 141°17'2 0.4 7.3
2018-Feb-11 07:00N 47°53' W 141°17'0 0.0 7.3
2018-Feb-11 06:00N 47°53' W 141°17'2 1.8 7.3
2018-Feb-11 05:00N 47°55' W 141°17'0 0.0 7.2
2018-Feb-11 04:00N 47°55' W 141°17'0 0.4 7.2
2018-Feb-11 03:00N 47°55' W 141°17'4 4.0 7.2
2018-Feb-11 02:00N 47°57' W 141°22'0 0.0 7.2
2018-Feb-11 01:00N 47°57' W 141°22'2 2.5 7.2
2018-Feb-11 00:00N 47°58' W 141°25'   7.3
Track history (hours):
 
Tides and Currents Weather Stations Pressure Air Temp Water Temp Dewpoint Dewpoint Depression Visibility Wind Speed Wind Dir Waves Ship Positions

Drifting buoy 46787

Last reported at 2018-Feb-21 00:00 UTC. Time now 2018-Feb-21 01:44 UTC.
Position N 47°21' W 140°13'.

Water temperature 7.2 ° C

Date/timePositionNaut miles runAvg speedWind from/ knotsBaromVisibWave heightAir tempDewpointWater temp
2018-Feb-21 00:00N 47°21' W 140°13'0 0.0 7.2
2018-Feb-20 23:00N 47°21' W 140°13'0 0.0 7.2
2018-Feb-20 22:00N 47°21' W 140°13'1 1.2 7.1
2018-Feb-20 21:00N 47°21' W 140°11'1 0.4 7.1
2018-Feb-20 19:00N 47°22' W 140°11'1 0.6 7.1
2018-Feb-20 17:00N 47°23' W 140°12'0 0.2 7.1
2018-Feb-20 15:00N 47°23' W 140°11'1 0.7 7.1
2018-Feb-20 14:00N 47°23' W 140°12'3 2.5 7.1
2018-Feb-20 13:00N 47°26' W 140°13'3 2.5 7.1
2018-Feb-20 12:00N 47°23' W 140°12'3 0.6 7.1
2018-Feb-20 07:00N 47°26' W 140°14'1 0.7 7.1
2018-Feb-20 06:00N 47°25' W 140°15'1 0.6 7.1
2018-Feb-20 05:00N 47°26' W 140°15'0 0.0 7.1
2018-Feb-20 04:00N 47°26' W 140°15'0 0.0 7.1
2018-Feb-20 03:00N 47°26' W 140°15'2 2.0 7.1
2018-Feb-20 02:00N 47°25' W 140°13'2 2.0 7.1
2018-Feb-20 01:00N 47°26' W 140°15'0 0.4 7.1
2018-Feb-20 00:00N 47°26' W 140°16'1 0.7 7.1
2018-Feb-19 23:00N 47°26' W 140°15'1 0.7 7.1
2018-Feb-19 22:00N 47°26' W 140°16'1 0.2 -0.0
2018-Feb-19 19:00N 47°26' W 140°16'1 1.4 7.1
2018-Feb-19 18:00N 47°27' W 140°18'0 0.0 7.1
2018-Feb-19 17:00N 47°27' W 140°18'0 0.0 7.1
2018-Feb-19 16:00N 47°27' W 140°18'0 0.0 7.1
2018-Feb-19 15:00N 47°27' W 140°18'0 0.0 7.1
2018-Feb-19 14:00N 47°27' W 140°18'1 1.3 7.1
2018-Feb-19 13:00N 47°26' W 140°19'0 0.0 7.1
2018-Feb-19 12:00N 47°26' W 140°19'0 0.0 7.1
2018-Feb-19 07:00N 47°26' W 140°19'1 0.6 7.1
2018-Feb-19 06:00N 47°26' W 140°19'1 0.8 7.1
2018-Feb-19 05:00N 47°26' W 140°17'2 1.8 7.2
2018-Feb-19 04:00N 47°28' W 140°17'0 0.0 7.2
2018-Feb-19 03:00N 47°28' W 140°17'1 1.4 7.2
2018-Feb-19 02:00N 47°29' W 140°19'1 0.8 7.2
2018-Feb-19 01:00N 47°29' W 140°20'0 0.0 7.2
2018-Feb-19 00:00N 47°29' W 140°20'0 0.0 7.2
2018-Feb-18 23:00N 47°29' W 140°20'1 0.6 7.2
2018-Feb-18 22:00N 47°30' W 140°20'1 0.3 7.2
2018-Feb-18 20:00N 47°29' W 140°20'2 1.2 7.2
2018-Feb-18 18:00N 47°29' W 140°16'0 0.0 7.1
2018-Feb-18 16:00N 47°29' W 140°16'1 0.7 7.1
2018-Feb-18 15:00N 47°30' W 140°16'1 0.7 7.2
2018-Feb-18 14:00N 47°31' W 140°15'2 2.2 7.1
2018-Feb-18 13:00N 47°32' W 140°13'1 1.4 7.1
2018-Feb-18 12:00N 47°31' W 140°14'3 2.5 7.1
2018-Feb-18 11:00N 47°34' W 140°16'0 0.1 7.1
2018-Feb-18 07:00N 47°34' W 140°15'0 0.0 7.1
2018-Feb-18 06:00N 47°34' W 140°15'0 0.4 7.1
2018-Feb-18 05:00N 47°34' W 140°16'0 0.4 7.1
2018-Feb-18 04:00N 47°34' W 140°15'0 0.0 7.1
2018-Feb-18 03:00N 47°34' W 140°15'1 1.2 7.1
2018-Feb-18 02:00N 47°34' W 140°13'0 0.4 7.1
2018-Feb-18 01:00N 47°34' W 140°13'1 1.0 7.2
2018-Feb-18 00:00N 47°34' W 140°11'0 0.0 7.2
2018-Feb-17 23:00N 47°34' W 140°11'3 2.7 7.2
2018-Feb-17 22:00N 47°37' W 140°10'0 0.0 7.2
2018-Feb-17 20:00N 47°37' W 140°10'1 1.3 7.1
2018-Feb-17 19:00N 47°38' W 140°10'3 2.7 7.1
2018-Feb-17 18:00N 47°40' W 140°12'1 0.2 7.1
2018-Feb-17 15:00N 47°41' W 140°13'0 0.0 7.1
2018-Feb-17 14:00N 47°41' W 140°13'0 0.0 7.1
2018-Feb-17 13:00N 47°41' W 140°13'2 2.0 7.1
2018-Feb-17 12:00N 47°43' W 140°14'3 3.1 7.1
2018-Feb-17 11:00N 47°40' W 140°13'4 0.9 7.1
2018-Feb-17 07:00N 47°43' W 140°14'1 1.4 7.1
2018-Feb-17 06:00N 47°44' W 140°16'1 1.4 7.1
2018-Feb-17 05:00N 47°45' W 140°14'0 0.0 7.1
2018-Feb-17 04:00N 47°45' W 140°14'1 1.4 7.1
2018-Feb-17 03:00N 47°46' W 140°16'0 0.0 7.1
2018-Feb-17 02:00N 47°46' W 140°16'3 2.7 7.1
2018-Feb-17 01:00N 47°47' W 140°20'0 0.0 7.1
2018-Feb-17 00:00N 47°47' W 140°20'0 0.0 7.1
2018-Feb-16 23:00N 47°47' W 140°20'3 0.9 7.1
2018-Feb-16 20:00N 47°46' W 140°23'1 1.0 7.1
2018-Feb-16 19:00N 47°45' W 140°22'1 0.4 7.1
2018-Feb-16 17:00N 47°44' W 140°23'1 0.5 7.1
2018-Feb-16 15:00N 47°45' W 140°22'1 0.7 7.1
2018-Feb-16 14:00N 47°46' W 140°21'2 2.0 7.1
2018-Feb-16 13:00N 47°47' W 140°22'5 4.8 7.1
2018-Feb-16 12:00N 47°49' W 140°29'4 4.2 7.1
2018-Feb-16 11:00N 47°48' W 140°23'4 1.1 7.2
2018-Feb-16 07:00N 47°50' W 140°29'3 2.7 7.4
2018-Feb-16 06:00N 47°49' W 140°32'1 0.6 7.4
2018-Feb-16 05:00N 47°48' W 140°32'1 1.3 7.4
2018-Feb-16 04:00N 47°47' W 140°32'0 0.0 7.4
2018-Feb-16 03:00N 47°47' W 140°32'1 1.0 7.4
2018-Feb-16 02:00N 47°46' W 140°31'1 0.7 7.4
2018-Feb-16 01:00N 47°47' W 140°30'0 0.0 7.4
2018-Feb-15 23:00N 47°47' W 140°30'1 1.2 7.3
2018-Feb-15 22:00N 47°48' W 140°30'1 1.3 7.3
2018-Feb-15 21:00N 47°49' W 140°32'0 0.0 7.3
2018-Feb-15 20:00N 47°49' W 140°32'1 1.2 7.3
2018-Feb-15 19:00N 47°49' W 140°34'1 1.2 7.3
2018-Feb-15 18:00N 47°49' W 140°35'2 2.0 7.3
2018-Feb-15 17:00N 47°47' W 140°38'0 0.0 7.3
2018-Feb-15 16:00N 47°47' W 140°38'1 1.4 7.3
2018-Feb-15 15:00N 47°47' W 140°40'1 0.6 7.3
2018-Feb-15 14:00N 47°46' W 140°40'1 0.6 7.3
2018-Feb-15 13:00N 47°46' W 140°40'1 0.6 7.3
2018-Feb-15 12:00N 47°45' W 140°40'0 0.0 7.3
2018-Feb-15 11:00N 47°45' W 140°40'0 0.0 7.3
2018-Feb-15 07:00N 47°45' W 140°40'1 0.6 7.3
2018-Feb-15 06:00N 47°46' W 140°40'1 0.6 7.3
2018-Feb-15 05:00N 47°46' W 140°40'1 1.4 7.3
2018-Feb-15 04:00N 47°47' W 140°41'0 0.0 7.3
2018-Feb-15 03:00N 47°47' W 140°41'1 1.3 7.3
2018-Feb-15 02:00N 47°48' W 140°43'2 1.7 7.3
2018-Feb-15 01:00N 47°49' W 140°45'0 0.0 7.3
2018-Feb-15 00:00N 47°49' W 140°45'1 0.8 7.4
2018-Feb-14 23:00N 47°49' W 140°46'1 1.3 7.3
2018-Feb-14 22:00N 47°48' W 140°48'1 0.7 7.3
2018-Feb-14 21:00N 47°47' W 140°49'0 0.4 7.3
2018-Feb-14 20:00N 47°47' W 140°48'1 1.0 7.3
2018-Feb-14 19:00N 47°47' W 140°47'1 1.4 7.3
2018-Feb-14 18:00N 47°46' W 140°45'0 0.0 7.3
2018-Feb-14 17:00N 47°46' W 140°45'3 1.3 7.2
2018-Feb-14 15:00N 47°49' W 140°44'1 0.7 7.2
2018-Feb-14 14:00N 47°49' W 140°43'1 1.4 7.2
2018-Feb-14 13:00N 47°50' W 140°44'5 5.3 7.2
2018-Feb-14 12:00N 47°53' W 140°51'0 0.0 7.2
2018-Feb-14 07:00N 47°53' W 140°51'0 0.4 7.2
2018-Feb-14 06:00N 47°53' W 140°52'1 0.6 7.2
2018-Feb-14 05:00N 47°53' W 140°52'1 0.7 7.2
2018-Feb-14 04:00N 47°52' W 140°51'1 0.7 7.2
2018-Feb-14 03:00N 47°53' W 140°50'0 0.4 7.2
2018-Feb-14 02:00N 47°53' W 140°50'0 0.0 7.2
2018-Feb-14 01:00N 47°53' W 140°50'1 0.6 7.2
2018-Feb-14 00:00N 47°53' W 140°50'1 1.3 7.3
2018-Feb-13 23:00N 47°55' W 140°49'2 2.4 7.3
2018-Feb-13 22:00N 47°57' W 140°49'0 0.0 7.3
2018-Feb-13 21:00N 47°57' W 140°49'0 0.4 7.3
2018-Feb-13 20:00N 47°57' W 140°49'3 1.6 7.2
2018-Feb-13 18:00N 47°59' W 140°52'3 0.9 7.2
2018-Feb-13 15:00N 47°59' W 140°56'1 0.7 7.2
2018-Feb-13 14:00N 47°59' W 140°57'1 1.0 7.2
2018-Feb-13 13:00N 47°58' W 140°58'2 2.0 7.3
2018-Feb-13 12:00N 47°56' W 140°59'0 0.0 7.3
2018-Feb-13 08:00N 47°56' W 140°59'0 0.4 7.3
2018-Feb-13 07:00N 47°56' W 140°59'0 0.4 7.3
2018-Feb-13 06:00N 47°56' W 140°59'0 0.0 7.3
2018-Feb-13 05:00N 47°56' W 140°59'0 0.0 7.3
2018-Feb-13 04:00N 47°56' W 140°59'1 1.2 7.3
2018-Feb-13 03:00N 47°56' W 141°01'2 2.4 7.3
2018-Feb-13 02:00N 47°56' W 141°05'0 0.0 7.3
2018-Feb-13 01:00N 47°56' W 141°05'1 1.3 7.3
2018-Feb-13 00:00N 47°56' W 141°07'0 0.0 7.3
2018-Feb-12 23:00N 47°56' W 141°07'2 2.0 7.3
2018-Feb-12 22:00N 47°54' W 141°08'0 0.0 7.3
2018-Feb-12 21:00N 47°54' W 141°08'0 0.0 7.3
2018-Feb-12 20:00N 47°54' W 141°08'1 1.2 7.3
2018-Feb-12 19:00N 47°53' W 141°08'1 0.8 7.3
2018-Feb-12 18:00N 47°53' W 141°07'0 0.0 7.3
2018-Feb-12 17:00N 47°53' W 141°07'1 1.2 7.3
2018-Feb-12 16:00N 47°53' W 141°05'0 0.0 7.3
2018-Feb-12 15:00N 47°53' W 141°05'1 1.0 7.3
2018-Feb-12 14:00N 47°53' W 141°06'4 4.1 7.3
2018-Feb-12 13:00N 47°53' W 141°12'0 0.0 7.3
2018-Feb-12 12:00N 47°53' W 141°12'0 0.0 7.3
2018-Feb-12 07:00N 47°53' W 141°12'1 1.0 7.3
2018-Feb-12 06:00N 47°52' W 141°13'1 0.7 7.3
2018-Feb-12 05:00N 47°52' W 141°14'1 1.3 7.3
2018-Feb-12 04:00N 47°50' W 141°13'0 0.0 7.3
2018-Feb-12 03:00N 47°50' W 141°13'1 1.3 7.3
2018-Feb-12 02:00N 47°50' W 141°11'0 0.0 7.3
2018-Feb-12 00:00N 47°50' W 141°11'1 1.3 7.3
2018-Feb-11 23:00N 47°51' W 141°11'0 0.0 7.3
2018-Feb-11 22:00N 47°51' W 141°11'0 0.0 7.3
2018-Feb-11 21:00N 47°51' W 141°11'1 1.2 7.3
2018-Feb-11 20:00N 47°52' W 141°11'1 0.7 7.3
2018-Feb-11 19:00N 47°52' W 141°11'3 0.9 7.2
2018-Feb-11 15:00N 47°53' W 141°16'1 0.8 7.3
2018-Feb-11 14:00N 47°53' W 141°17'2 1.8 7.3
2018-Feb-11 13:00N 47°51' W 141°17'0 0.0 7.3
2018-Feb-11 12:00N 47°51' W 141°17'2 0.4 7.3
2018-Feb-11 07:00N 47°53' W 141°17'0 0.0 7.3
2018-Feb-11 06:00N 47°53' W 141°17'2 1.8 7.3
2018-Feb-11 05:00N 47°55' W 141°17'0 0.0 7.2
2018-Feb-11 04:00N 47°55' W 141°17'0 0.4 7.2
2018-Feb-11 03:00N 47°55' W 141°17'4 4.0 7.2
2018-Feb-11 02:00N 47°57' W 141°22'0 0.0 7.2
2018-Feb-11 01:00N 47°57' W 141°22'2 2.5 7.2
2018-Feb-11 00:00N 47°58' W 141°25'   7.3

Dump ship's entire track history